sensor_id;sensor_type;location;lat;lon;timestamp;P1;durP1;ratioP1;P2;durP2;ratioP2
35981;SDS011;22058;0.000;0.000;2023-04-03T00:00:56;0.82;;;0.82;;
35981;SDS011;22058;0.000;0.000;2023-04-03T00:03:23;1.00;;;1.00;;
35981;SDS011;22058;0.000;0.000;2023-04-03T00:05:49;0.80;;;0.80;;
35981;SDS011;22058;0.000;0.000;2023-04-03T00:08:16;1.15;;;1.15;;
35981;SDS011;22058;0.000;0.000;2023-04-03T00:10:42;0.95;;;0.95;;
35981;SDS011;22058;0.000;0.000;2023-04-03T00:13:08;0.70;;;0.70;;
35981;SDS011;22058;0.000;0.000;2023-04-03T00:15:35;1.00;;;1.00;;
35981;SDS011;22058;0.000;0.000;2023-04-03T00:18:02;0.90;;;0.90;;
35981;SDS011;22058;0.000;0.000;2023-04-03T00:20:28;1.10;;;1.00;;
35981;SDS011;22058;0.000;0.000;2023-04-03T00:22:54;1.05;;;1.00;;
35981;SDS011;22058;0.000;0.000;2023-04-03T00:25:21;0.85;;;0.85;;
35981;SDS011;22058;0.000;0.000;2023-04-03T00:27:47;0.95;;;0.95;;
35981;SDS011;22058;0.000;0.000;2023-04-03T00:30:14;1.02;;;1.00;;
35981;SDS011;22058;0.000;0.000;2023-04-03T00:32:41;0.90;;;0.90;;
35981;SDS011;22058;0.000;0.000;2023-04-03T00:35:07;0.98;;;0.98;;
35981;SDS011;22058;0.000;0.000;2023-04-03T00:37:33;1.15;;;1.10;;
35981;SDS011;22058;0.000;0.000;2023-04-03T00:39:59;2.13;;;1.00;;
35981;SDS011;22058;0.000;0.000;2023-04-03T00:42:25;1.00;;;1.00;;
35981;SDS011;22058;0.000;0.000;2023-04-03T00:47:21;1.02;;;1.02;;
35981;SDS011;22058;0.000;0.000;2023-04-03T00:49:47;1.00;;;1.00;;
35981;SDS011;22058;0.000;0.000;2023-04-03T00:52:15;0.90;;;0.90;;
35981;SDS011;22058;0.000;0.000;2023-04-03T00:54:42;1.10;;;1.10;;
35981;SDS011;22058;0.000;0.000;2023-04-03T00:57:09;0.70;;;0.70;;
35981;SDS011;22058;0.000;0.000;2023-04-03T00:59:36;0.80;;;0.80;;
35981;SDS011;22058;0.000;0.000;2023-04-03T01:02:05;1.10;;;1.10;;
35981;SDS011;22058;0.000;0.000;2023-04-03T01:04:35;0.80;;;0.80;;
35981;SDS011;22058;0.000;0.000;2023-04-03T01:07:08;0.90;;;0.90;;
35981;SDS011;22058;0.000;0.000;2023-04-03T01:09:36;0.98;;;0.98;;
35981;SDS011;22058;0.000;0.000;2023-04-03T01:14:43;1.52;;;0.90;;
35981;SDS011;22058;0.000;0.000;2023-04-03T01:22:24;0.90;;;0.90;;
35981;SDS011;22058;0.000;0.000;2023-04-03T01:24:52;1.02;;;1.02;;
35981;SDS011;22058;0.000;0.000;2023-04-03T01:27:18;0.90;;;0.90;;
35981;SDS011;22058;0.000;0.000;2023-04-03T01:29:44;1.00;;;1.00;;
35981;SDS011;22058;0.000;0.000;2023-04-03T01:32:11;0.90;;;0.90;;
35981;SDS011;22058;0.000;0.000;2023-04-03T01:34:37;0.70;;;0.70;;
35981;SDS011;22058;0.000;0.000;2023-04-03T01:37:03;1.08;;;1.08;;
35981;SDS011;22058;0.000;0.000;2023-04-03T01:39:29;1.30;;;1.10;;
35981;SDS011;22058;0.000;0.000;2023-04-03T01:41:55;0.98;;;0.98;;
35981;SDS011;22058;0.000;0.000;2023-04-03T01:44:21;0.90;;;0.90;;
35981;SDS011;22058;0.000;0.000;2023-04-03T01:46:47;1.10;;;1.10;;
35981;SDS011;22058;0.000;0.000;2023-04-03T01:49:14;0.88;;;0.88;;
35981;SDS011;22058;0.000;0.000;2023-04-03T01:51:40;0.90;;;0.90;;
35981;SDS011;22058;0.000;0.000;2023-04-03T01:54:06;0.85;;;0.85;;
35981;SDS011;22058;0.000;0.000;2023-04-03T01:56:32;0.90;;;0.90;;
35981;SDS011;22058;0.000;0.000;2023-04-03T01:58:58;1.13;;;1.02;;
35981;SDS011;22058;0.000;0.000;2023-04-03T02:01:24;0.93;;;0.93;;
35981;SDS011;22058;0.000;0.000;2023-04-03T02:03:51;1.00;;;1.00;;
35981;SDS011;22058;0.000;0.000;2023-04-03T02:06:17;0.90;;;0.90;;
35981;SDS011;22058;0.000;0.000;2023-04-03T02:08:43;0.60;;;0.60;;
35981;SDS011;22058;0.000;0.000;2023-04-03T02:11:09;1.00;;;1.00;;
35981;SDS011;22058;0.000;0.000;2023-04-03T02:13:35;0.70;;;0.70;;
35981;SDS011;22058;0.000;0.000;2023-04-03T02:16:08;1.20;;;1.10;;
35981;SDS011;22058;0.000;0.000;2023-04-03T02:18:35;0.90;;;0.90;;
35981;SDS011;22058;0.000;0.000;2023-04-03T02:21:01;0.85;;;0.85;;
35981;SDS011;22058;0.000;0.000;2023-04-03T02:23:27;0.90;;;0.90;;
35981;SDS011;22058;0.000;0.000;2023-04-03T02:26:01;1.05;;;1.05;;
35981;SDS011;22058;0.000;0.000;2023-04-03T02:28:27;1.23;;;1.13;;
35981;SDS011;22058;0.000;0.000;2023-04-03T02:30:53;0.90;;;0.90;;
35981;SDS011;22058;0.000;0.000;2023-04-03T02:33:20;0.90;;;0.90;;
35981;SDS011;22058;0.000;0.000;2023-04-03T02:35:46;1.05;;;1.05;;
35981;SDS011;22058;0.000;0.000;2023-04-03T02:38:18;0.80;;;0.80;;
35981;SDS011;22058;0.000;0.000;2023-04-03T02:40:44;0.90;;;0.90;;
35981;SDS011;22058;0.000;0.000;2023-04-03T02:43:10;0.70;;;0.70;;
35981;SDS011;22058;0.000;0.000;2023-04-03T02:45:36;0.80;;;0.80;;
35981;SDS011;22058;0.000;0.000;2023-04-03T02:48:02;0.90;;;0.80;;
35981;SDS011;22058;0.000;0.000;2023-04-03T02:50:28;0.90;;;0.90;;
35981;SDS011;22058;0.000;0.000;2023-04-03T02:52:54;1.00;;;0.70;;
35981;SDS011;22058;0.000;0.000;2023-04-03T02:55:20;1.02;;;1.02;;
35981;SDS011;22058;0.000;0.000;2023-04-03T02:57:47;0.73;;;0.73;;
35981;SDS011;22058;0.000;0.000;2023-04-03T03:00:13;0.75;;;0.75;;
35981;SDS011;22058;0.000;0.000;2023-04-03T03:02:39;1.10;;;0.90;;
35981;SDS011;22058;0.000;0.000;2023-04-03T03:05:06;1.08;;;0.95;;
35981;SDS011;22058;0.000;0.000;2023-04-03T03:07:32;0.88;;;0.88;;
35981;SDS011;22058;0.000;0.000;2023-04-03T03:09:59;0.70;;;0.70;;
35981;SDS011;22058;0.000;0.000;2023-04-03T03:12:25;0.88;;;0.88;;
35981;SDS011;22058;0.000;0.000;2023-04-03T03:14:51;1.13;;;1.10;;
35981;SDS011;22058;0.000;0.000;2023-04-03T03:17:17;0.80;;;0.80;;
35981;SDS011;22058;0.000;0.000;2023-04-03T03:19:43;0.65;;;0.65;;
35981;SDS011;22058;0.000;0.000;2023-04-03T03:22:10;1.15;;;1.00;;
35981;SDS011;22058;0.000;0.000;2023-04-03T03:24:37;0.93;;;0.90;;
35981;SDS011;22058;0.000;0.000;2023-04-03T03:27:03;0.70;;;0.70;;
35981;SDS011;22058;0.000;0.000;2023-04-03T03:29:29;0.80;;;0.80;;
35981;SDS011;22058;0.000;0.000;2023-04-03T03:31:55;0.82;;;0.82;;
35981;SDS011;22058;0.000;0.000;2023-04-03T03:34:21;0.77;;;0.77;;
35981;SDS011;22058;0.000;0.000;2023-04-03T03:36:47;1.05;;;0.90;;
35981;SDS011;22058;0.000;0.000;2023-04-03T03:39:13;0.70;;;0.70;;
35981;SDS011;22058;0.000;0.000;2023-04-03T03:41:40;0.60;;;0.60;;
35981;SDS011;22058;0.000;0.000;2023-04-03T03:44:06;0.90;;;0.90;;
35981;SDS011;22058;0.000;0.000;2023-04-03T03:46:32;0.68;;;0.68;;
35981;SDS011;22058;0.000;0.000;2023-04-03T03:48:58;0.60;;;0.60;;
35981;SDS011;22058;0.000;0.000;2023-04-03T03:51:24;0.70;;;0.70;;
35981;SDS011;22058;0.000;0.000;2023-04-03T03:53:50;0.60;;;0.60;;
35981;SDS011;22058;0.000;0.000;2023-04-03T03:56:16;0.80;;;0.80;;
35981;SDS011;22058;0.000;0.000;2023-04-03T03:58:42;0.70;;;0.70;;
35981;SDS011;22058;0.000;0.000;2023-04-03T04:01:09;0.80;;;0.80;;
35981;SDS011;22058;0.000;0.000;2023-04-03T04:03:35;0.52;;;0.52;;
35981;SDS011;22058;0.000;0.000;2023-04-03T04:06:02;0.90;;;0.90;;
35981;SDS011;22058;0.000;0.000;2023-04-03T04:08:28;0.95;;;0.95;;
35981;SDS011;22058;0.000;0.000;2023-04-03T04:10:54;1.10;;;1.10;;
35981;SDS011;22058;0.000;0.000;2023-04-03T04:13:21;0.85;;;0.85;;
35981;SDS011;22058;0.000;0.000;2023-04-03T04:15:47;0.75;;;0.75;;
35981;SDS011;22058;0.000;0.000;2023-04-03T04:18:13;0.68;;;0.68;;
35981;SDS011;22058;0.000;0.000;2023-04-03T04:20:39;1.08;;;1.00;;
35981;SDS011;22058;0.000;0.000;2023-04-03T04:23:05;0.70;;;0.70;;
35981;SDS011;22058;0.000;0.000;2023-04-03T04:25:31;0.80;;;0.80;;
35981;SDS011;22058;0.000;0.000;2023-04-03T04:27:58;0.82;;;0.82;;
35981;SDS011;22058;0.000;0.000;2023-04-03T04:30:24;0.68;;;0.68;;
35981;SDS011;22058;0.000;0.000;2023-04-03T04:32:51;0.60;;;0.60;;
35981;SDS011;22058;0.000;0.000;2023-04-03T04:35:17;1.92;;;1.02;;
35981;SDS011;22058;0.000;0.000;2023-04-03T04:37:43;1.10;;;1.00;;
35981;SDS011;22058;0.000;0.000;2023-04-03T04:40:09;1.95;;;0.70;;
35981;SDS011;22058;0.000;0.000;2023-04-03T04:42:35;1.52;;;0.93;;
35981;SDS011;22058;0.000;0.000;2023-04-03T04:45:02;1.08;;;0.98;;
35981;SDS011;22058;0.000;0.000;2023-04-03T04:47:28;3.75;;;1.02;;
35981;SDS011;22058;0.000;0.000;2023-04-03T04:49:54;0.75;;;0.75;;
35981;SDS011;22058;0.000;0.000;2023-04-03T04:52:21;0.60;;;0.60;;
35981;SDS011;22058;0.000;0.000;2023-04-03T04:54:47;4.28;;;1.00;;
35981;SDS011;22058;0.000;0.000;2023-04-03T04:57:13;2.05;;;0.60;;
35981;SDS011;22058;0.000;0.000;2023-04-03T04:59:39;3.95;;;1.02;;
35981;SDS011;22058;0.000;0.000;2023-04-03T05:02:05;5.55;;;1.35;;
35981;SDS011;22058;0.000;0.000;2023-04-03T05:04:31;2.15;;;1.30;;
35981;SDS011;22058;0.000;0.000;2023-04-03T05:06:58;3.28;;;0.98;;
35981;SDS011;22058;0.000;0.000;2023-04-03T05:09:24;3.67;;;1.05;;
35981;SDS011;22058;0.000;0.000;2023-04-03T05:11:50;1.05;;;0.85;;
35981;SDS011;22058;0.000;0.000;2023-04-03T05:14:16;1.88;;;1.42;;
35981;SDS011;22058;0.000;0.000;2023-04-03T05:16:44;2.70;;;0.90;;
35981;SDS011;22058;0.000;0.000;2023-04-03T05:19:10;8.75;;;1.40;;
35981;SDS011;22058;0.000;0.000;2023-04-03T05:21:36;10.35;;;1.58;;
35981;SDS011;22058;0.000;0.000;2023-04-03T05:24:02;5.80;;;1.50;;
35981;SDS011;22058;0.000;0.000;2023-04-03T05:26:30;7.88;;;1.33;;
35981;SDS011;22058;0.000;0.000;2023-04-03T05:28:56;4.82;;;1.20;;
35981;SDS011;22058;0.000;0.000;2023-04-03T05:31:22;8.00;;;1.17;;
35981;SDS011;22058;0.000;0.000;2023-04-03T05:33:49;7.05;;;1.02;;
35981;SDS011;22058;0.000;0.000;2023-04-03T05:36:15;23.38;;;1.88;;
35981;SDS011;22058;0.000;0.000;2023-04-03T05:38:41;2.15;;;1.25;;
35981;SDS011;22058;0.000;0.000;2023-04-03T05:41:07;5.32;;;1.08;;
35981;SDS011;22058;0.000;0.000;2023-04-03T05:43:33;5.30;;;1.30;;
35981;SDS011;22058;0.000;0.000;2023-04-03T05:46:02;1.92;;;0.95;;
35981;SDS011;22058;0.000;0.000;2023-04-03T05:48:29;3.67;;;0.80;;
35981;SDS011;22058;0.000;0.000;2023-04-03T05:50:55;4.50;;;1.27;;
35981;SDS011;22058;0.000;0.000;2023-04-03T05:53:22;5.68;;;1.27;;
35981;SDS011;22058;0.000;0.000;2023-04-03T05:55:50;1.65;;;0.88;;
35981;SDS011;22058;0.000;0.000;2023-04-03T05:58:17;3.10;;;1.70;;
35981;SDS011;22058;0.000;0.000;2023-04-03T06:03:18;5.40;;;2.53;;
35981;SDS011;22058;0.000;0.000;2023-04-03T06:05:45;4.07;;;1.40;;
35981;SDS011;22058;0.000;0.000;2023-04-03T06:08:11;5.28;;;1.25;;
35981;SDS011;22058;0.000;0.000;2023-04-03T06:10:39;8.07;;;1.35;;
35981;SDS011;22058;0.000;0.000;2023-04-03T06:13:06;5.93;;;1.50;;
35981;SDS011;22058;0.000;0.000;2023-04-03T06:15:33;4.28;;;0.90;;
35981;SDS011;22058;0.000;0.000;2023-04-03T06:17:59;1.60;;;1.23;;
35981;SDS011;22058;0.000;0.000;2023-04-03T06:20:25;8.15;;;1.42;;
35981;SDS011;22058;0.000;0.000;2023-04-03T06:22:51;5.82;;;1.60;;
35981;SDS011;22058;0.000;0.000;2023-04-03T06:25:18;6.45;;;2.20;;
35981;SDS011;22058;0.000;0.000;2023-04-03T06:27:44;8.77;;;1.90;;
35981;SDS011;22058;0.000;0.000;2023-04-03T06:30:10;20.77;;;3.13;;
35981;SDS011;22058;0.000;0.000;2023-04-03T06:32:37;8.80;;;1.63;;
35981;SDS011;22058;0.000;0.000;2023-04-03T06:35:04;7.03;;;1.48;;
35981;SDS011;22058;0.000;0.000;2023-04-03T06:37:30;10.77;;;1.60;;
35981;SDS011;22058;0.000;0.000;2023-04-03T06:39:57;5.68;;;2.03;;
35981;SDS011;22058;0.000;0.000;2023-04-03T06:42:25;2.13;;;1.27;;
35981;SDS011;22058;0.000;0.000;2023-04-03T06:44:51;6.50;;;1.60;;
35981;SDS011;22058;0.000;0.000;2023-04-03T06:47:17;5.32;;;1.38;;
35981;SDS011;22058;0.000;0.000;2023-04-03T06:49:44;1.95;;;1.15;;
35981;SDS011;22058;0.000;0.000;2023-04-03T06:52:10;6.50;;;1.63;;
35981;SDS011;22058;0.000;0.000;2023-04-03T06:54:38;7.85;;;1.50;;
35981;SDS011;22058;0.000;0.000;2023-04-03T06:57:05;9.00;;;1.52;;
35981;SDS011;22058;0.000;0.000;2023-04-03T06:59:31;3.42;;;1.17;;
35981;SDS011;22058;0.000;0.000;2023-04-03T07:01:57;3.72;;;2.20;;
35981;SDS011;22058;0.000;0.000;2023-04-03T07:04:24;2.92;;;1.00;;
35981;SDS011;22058;0.000;0.000;2023-04-03T07:06:51;13.63;;;2.28;;
35981;SDS011;22058;0.000;0.000;2023-04-03T07:09:17;5.78;;;1.50;;
35981;SDS011;22058;0.000;0.000;2023-04-03T07:11:44;11.82;;;1.40;;
35981;SDS011;22058;0.000;0.000;2023-04-03T07:14:10;5.60;;;1.50;;
35981;SDS011;22058;0.000;0.000;2023-04-03T07:16:37;12.55;;;1.40;;
35981;SDS011;22058;0.000;0.000;2023-04-03T07:19:03;6.32;;;0.95;;
35981;SDS011;22058;0.000;0.000;2023-04-03T07:21:29;9.73;;;1.33;;
35981;SDS011;22058;0.000;0.000;2023-04-03T07:23:55;11.20;;;1.40;;
35981;SDS011;22058;0.000;0.000;2023-04-03T07:26:21;2.72;;;1.42;;
35981;SDS011;22058;0.000;0.000;2023-04-03T07:28:48;5.20;;;1.50;;
35981;SDS011;22058;0.000;0.000;2023-04-03T07:31:14;7.45;;;1.38;;
35981;SDS011;22058;0.000;0.000;2023-04-03T07:33:42;5.70;;;1.00;;
35981;SDS011;22058;0.000;0.000;2023-04-03T07:36:09;3.28;;;1.60;;
35981;SDS011;22058;0.000;0.000;2023-04-03T07:38:35;9.18;;;1.67;;
35981;SDS011;22058;0.000;0.000;2023-04-03T07:41:02;5.63;;;1.50;;
35981;SDS011;22058;0.000;0.000;2023-04-03T07:43:28;7.80;;;1.95;;
35981;SDS011;22058;0.000;0.000;2023-04-03T07:45:55;11.02;;;1.85;;
35981;SDS011;22058;0.000;0.000;2023-04-03T07:48:22;8.45;;;1.63;;
35981;SDS011;22058;0.000;0.000;2023-04-03T07:50:48;8.90;;;1.73;;
35981;SDS011;22058;0.000;0.000;2023-04-03T07:53:15;6.25;;;1.38;;
35981;SDS011;22058;0.000;0.000;2023-04-03T07:55:41;6.78;;;1.20;;
35981;SDS011;22058;0.000;0.000;2023-04-03T07:58:12;2.92;;;1.83;;
35981;SDS011;22058;0.000;0.000;2023-04-03T08:00:39;4.05;;;1.48;;
35981;SDS011;22058;0.000;0.000;2023-04-03T08:03:06;4.03;;;1.00;;
35981;SDS011;22058;0.000;0.000;2023-04-03T08:05:37;5.80;;;1.23;;
35981;SDS011;22058;0.000;0.000;2023-04-03T08:08:04;2.00;;;1.38;;
35981;SDS011;22058;0.000;0.000;2023-04-03T08:10:31;6.93;;;1.98;;
35981;SDS011;22058;0.000;0.000;2023-04-03T08:12:57;8.82;;;1.60;;
35981;SDS011;22058;0.000;0.000;2023-04-03T08:15:23;3.72;;;1.40;;
35981;SDS011;22058;0.000;0.000;2023-04-03T08:17:49;13.25;;;1.77;;
35981;SDS011;22058;0.000;0.000;2023-04-03T08:20:16;5.40;;;1.33;;
35981;SDS011;22058;0.000;0.000;2023-04-03T08:22:42;10.07;;;1.52;;
35981;SDS011;22058;0.000;0.000;2023-04-03T08:25:08;5.40;;;1.40;;
35981;SDS011;22058;0.000;0.000;2023-04-03T08:27:35;3.40;;;1.45;;
35981;SDS011;22058;0.000;0.000;2023-04-03T08:30:01;6.38;;;1.33;;
35981;SDS011;22058;0.000;0.000;2023-04-03T08:32:28;6.32;;;1.48;;
35981;SDS011;22058;0.000;0.000;2023-04-03T08:34:54;10.38;;;1.33;;
35981;SDS011;22058;0.000;0.000;2023-04-03T08:37:20;9.20;;;1.63;;
35981;SDS011;22058;0.000;0.000;2023-04-03T08:39:46;4.25;;;1.25;;
35981;SDS011;22058;0.000;0.000;2023-04-03T08:44:56;3.22;;;1.25;;
35981;SDS011;22058;0.000;0.000;2023-04-03T08:47:28;3.08;;;1.23;;
35981;SDS011;22058;0.000;0.000;2023-04-03T08:49:59;3.90;;;1.38;;
35981;SDS011;22058;0.000;0.000;2023-04-03T08:52:39;4.03;;;1.30;;
35981;SDS011;22058;0.000;0.000;2023-04-03T08:57:33;8.68;;;4.93;;
35981;SDS011;22058;0.000;0.000;2023-04-03T09:00:01;2.58;;;1.05;;
35981;SDS011;22058;0.000;0.000;2023-04-03T09:02:31;1.80;;;1.23;;
35981;SDS011;22058;0.000;0.000;2023-04-03T09:04:59;4.78;;;1.42;;
35981;SDS011;22058;0.000;0.000;2023-04-03T09:07:29;3.13;;;1.33;;
35981;SDS011;22058;0.000;0.000;2023-04-03T09:09:57;7.88;;;2.05;;
35981;SDS011;22058;0.000;0.000;2023-04-03T09:22:41;5.75;;;1.60;;
35981;SDS011;22058;0.000;0.000;2023-04-03T09:27:37;10.30;;;2.85;;
35981;SDS011;22058;0.000;0.000;2023-04-03T09:30:04;8.45;;;1.88;;
35981;SDS011;22058;0.000;0.000;2023-04-03T09:32:33;3.22;;;1.38;;
35981;SDS011;22058;0.000;0.000;2023-04-03T09:35:04;12.90;;;1.48;;
35981;SDS011;22058;0.000;0.000;2023-04-03T09:40:02;6.43;;;1.60;;
35981;SDS011;22058;0.000;0.000;2023-04-03T09:42:29;4.80;;;1.42;;
35981;SDS011;22058;0.000;0.000;2023-04-03T09:49:48;8.88;;;2.40;;
35981;SDS011;22058;0.000;0.000;2023-04-03T09:52:18;5.53;;;1.30;;
35981;SDS011;22058;0.000;0.000;2023-04-03T09:54:44;5.35;;;1.63;;
35981;SDS011;22058;0.000;0.000;2023-04-03T09:57:12;6.30;;;1.30;;
35981;SDS011;22058;0.000;0.000;2023-04-03T09:59:46;2.47;;;1.13;;
35981;SDS011;22058;0.000;0.000;2023-04-03T10:04:42;5.95;;;1.67;;
35981;SDS011;22058;0.000;0.000;2023-04-03T10:07:25;12.55;;;2.42;;
35981;SDS011;22058;0.000;0.000;2023-04-03T10:09:56;10.48;;;1.90;;
35981;SDS011;22058;0.000;0.000;2023-04-03T10:12:22;3.95;;;1.40;;
35981;SDS011;22058;0.000;0.000;2023-04-03T10:14:55;2.58;;;1.55;;
35981;SDS011;22058;0.000;0.000;2023-04-03T10:35:07;5.90;;;1.23;;
35981;SDS011;22058;0.000;0.000;2023-04-03T10:37:35;7.10;;;1.80;;
35981;SDS011;22058;0.000;0.000;2023-04-03T10:42:50;4.85;;;1.23;;
35981;SDS011;22058;0.000;0.000;2023-04-03T10:53:01;7.07;;;2.05;;
35981;SDS011;22058;0.000;0.000;2023-04-03T10:55:37;4.40;;;1.48;;
35981;SDS011;22058;0.000;0.000;2023-04-03T10:58:05;5.25;;;1.65;;
35981;SDS011;22058;0.000;0.000;2023-04-03T11:00:39;8.93;;;1.77;;
35981;SDS011;22058;0.000;0.000;2023-04-03T11:03:10;2.78;;;2.10;;
35981;SDS011;22058;0.000;0.000;2023-04-03T11:10:45;4.45;;;1.65;;
35981;SDS011;22058;0.000;0.000;2023-04-03T11:13:14;3.58;;;2.00;;
35981;SDS011;22058;0.000;0.000;2023-04-03T11:15:41;7.22;;;1.75;;
35981;SDS011;22058;0.000;0.000;2023-04-03T11:18:14;11.40;;;2.13;;
35981;SDS011;22058;0.000;0.000;2023-04-03T11:20:42;6.03;;;1.63;;
35981;SDS011;22058;0.000;0.000;2023-04-03T11:23:13;6.65;;;1.48;;
35981;SDS011;22058;0.000;0.000;2023-04-03T11:25:41;8.13;;;2.15;;
35981;SDS011;22058;0.000;0.000;2023-04-03T11:28:12;6.35;;;2.15;;
35981;SDS011;22058;0.000;0.000;2023-04-03T11:35:37;3.78;;;1.80;;
35981;SDS011;22058;0.000;0.000;2023-04-03T11:38:10;5.60;;;1.65;;
35981;SDS011;22058;0.000;0.000;2023-04-03T11:40:40;9.25;;;1.55;;
35981;SDS011;22058;0.000;0.000;2023-04-03T11:43:07;9.13;;;1.95;;
35981;SDS011;22058;0.000;0.000;2023-04-03T11:46:05;6.45;;;2.22;;
35981;SDS011;22058;0.000;0.000;2023-04-03T11:51:58;3.08;;;1.25;;
35981;SDS011;22058;0.000;0.000;2023-04-03T11:53:53;8.85;;;2.03;;
35981;SDS011;22058;0.000;0.000;2023-04-03T12:01:51;5.88;;;1.60;;
35981;SDS011;22058;0.000;0.000;2023-04-03T12:04:17;4.25;;;1.42;;
35981;SDS011;22058;0.000;0.000;2023-04-03T12:09:33;7.80;;;1.33;;
35981;SDS011;22058;0.000;0.000;2023-04-03T12:12:01;10.38;;;1.90;;
35981;SDS011;22058;0.000;0.000;2023-04-03T12:14:46;11.05;;;2.00;;
35981;SDS011;22058;0.000;0.000;2023-04-03T12:17:19;6.40;;;1.80;;
35981;SDS011;22058;0.000;0.000;2023-04-03T12:19:46;9.93;;;1.92;;
35981;SDS011;22058;0.000;0.000;2023-04-03T12:22:13;11.30;;;2.92;;
35981;SDS011;22058;0.000;0.000;2023-04-03T12:24:50;8.43;;;1.80;;
35981;SDS011;22058;0.000;0.000;2023-04-03T12:27:21;4.28;;;1.63;;
35981;SDS011;22058;0.000;0.000;2023-04-03T12:32:24;7.60;;;1.75;;
35981;SDS011;22058;0.000;0.000;2023-04-03T12:45:20;6.47;;;1.42;;
35981;SDS011;22058;0.000;0.000;2023-04-03T12:47:51;11.65;;;1.77;;
35981;SDS011;22058;0.000;0.000;2023-04-03T12:52:45;4.05;;;1.75;;
35981;SDS011;22058;0.000;0.000;2023-04-03T12:55:17;5.80;;;1.80;;
35981;SDS011;22058;0.000;0.000;2023-04-03T12:57:44;9.55;;;2.45;;
35981;SDS011;22058;0.000;0.000;2023-04-03T13:02:46;5.47;;;1.73;;
35981;SDS011;22058;0.000;0.000;2023-04-03T13:05:18;7.05;;;1.75;;
35981;SDS011;22058;0.000;0.000;2023-04-03T13:07:47;6.63;;;1.50;;
35981;SDS011;22058;0.000;0.000;2023-04-03T13:10:15;6.60;;;1.70;;
35981;SDS011;22058;0.000;0.000;2023-04-03T13:13:06;6.57;;;1.75;;
35981;SDS011;22058;0.000;0.000;2023-04-03T13:15:39;5.68;;;2.10;;
35981;SDS011;22058;0.000;0.000;2023-04-03T13:18:20;4.15;;;2.22;;
35981;SDS011;22058;0.000;0.000;2023-04-03T13:20:47;4.20;;;1.67;;
35981;SDS011;22058;0.000;0.000;2023-04-03T13:23:13;8.38;;;1.65;;
35981;SDS011;22058;0.000;0.000;2023-04-03T13:25:43;8.15;;;1.77;;
35981;SDS011;22058;0.000;0.000;2023-04-03T13:28:10;7.22;;;3.13;;
35981;SDS011;22058;0.000;0.000;2023-04-03T13:30:39;4.45;;;2.70;;
35981;SDS011;22058;0.000;0.000;2023-04-03T13:33:17;8.65;;;2.70;;
35981;SDS011;22058;0.000;0.000;2023-04-03T13:35:44;6.22;;;2.45;;
35981;SDS011;22058;0.000;0.000;2023-04-03T13:41:03;10.27;;;2.40;;
35981;SDS011;22058;0.000;0.000;2023-04-03T13:43:31;4.40;;;1.48;;
35981;SDS011;22058;0.000;0.000;2023-04-03T13:48:34;4.60;;;1.83;;
35981;SDS011;22058;0.000;0.000;2023-04-03T13:51:02;9.98;;;2.03;;
35981;SDS011;22058;0.000;0.000;2023-04-03T13:53:29;4.45;;;1.63;;
35981;SDS011;22058;0.000;0.000;2023-04-03T13:58:29;3.60;;;1.70;;
35981;SDS011;22058;0.000;0.000;2023-04-03T14:03:45;5.20;;;1.70;;
35981;SDS011;22058;0.000;0.000;2023-04-03T14:06:15;8.77;;;2.50;;
35981;SDS011;22058;0.000;0.000;2023-04-03T14:08:42;15.65;;;3.08;;
35981;SDS011;22058;0.000;0.000;2023-04-03T14:13:46;7.95;;;1.55;;
35981;SDS011;22058;0.000;0.000;2023-04-03T14:16:18;7.88;;;2.05;;
35981;SDS011;22058;0.000;0.000;2023-04-03T14:18:44;5.57;;;2.42;;
35981;SDS011;22058;0.000;0.000;2023-04-03T14:21:11;3.00;;;1.73;;
35981;SDS011;22058;0.000;0.000;2023-04-03T14:23:38;9.25;;;2.08;;
35981;SDS011;22058;0.000;0.000;2023-04-03T14:26:07;12.07;;;2.58;;
35981;SDS011;22058;0.000;0.000;2023-04-03T14:28:34;2.60;;;1.50;;
35981;SDS011;22058;0.000;0.000;2023-04-03T14:31:00;8.85;;;1.88;;
35981;SDS011;22058;0.000;0.000;2023-04-03T14:33:27;7.43;;;1.95;;
35981;SDS011;22058;0.000;0.000;2023-04-03T14:35:56;4.22;;;1.70;;
35981;SDS011;22058;0.000;0.000;2023-04-03T14:38:26;5.30;;;1.90;;
35981;SDS011;22058;0.000;0.000;2023-04-03T14:40:53;8.27;;;2.05;;
35981;SDS011;22058;0.000;0.000;2023-04-03T14:43:19;8.70;;;2.33;;
35981;SDS011;22058;0.000;0.000;2023-04-03T14:45:46;7.97;;;3.00;;
35981;SDS011;22058;0.000;0.000;2023-04-03T14:48:15;7.10;;;1.50;;
35981;SDS011;22058;0.000;0.000;2023-04-03T14:50:42;5.15;;;1.60;;
35981;SDS011;22058;0.000;0.000;2023-04-03T14:53:09;8.02;;;1.98;;
35981;SDS011;22058;0.000;0.000;2023-04-03T14:55:36;4.30;;;1.92;;
35981;SDS011;22058;0.000;0.000;2023-04-03T14:58:03;7.50;;;1.73;;
35981;SDS011;22058;0.000;0.000;2023-04-03T15:00:29;6.30;;;2.00;;
35981;SDS011;22058;0.000;0.000;2023-04-03T15:02:55;16.90;;;3.30;;
35981;SDS011;22058;0.000;0.000;2023-04-03T15:05:21;9.27;;;3.30;;
35981;SDS011;22058;0.000;0.000;2023-04-03T15:07:49;5.53;;;2.03;;
35981;SDS011;22058;0.000;0.000;2023-04-03T15:10:28;9.48;;;2.22;;
35981;SDS011;22058;0.000;0.000;2023-04-03T15:12:55;5.75;;;1.98;;
35981;SDS011;22058;0.000;0.000;2023-04-03T15:15:22;6.75;;;2.55;;
35981;SDS011;22058;0.000;0.000;2023-04-03T15:17:52;4.30;;;1.70;;
35981;SDS011;22058;0.000;0.000;2023-04-03T15:20:20;7.60;;;1.52;;
35981;SDS011;22058;0.000;0.000;2023-04-03T15:22:47;4.07;;;1.50;;
35981;SDS011;22058;0.000;0.000;2023-04-03T15:25:13;8.00;;;1.83;;
35981;SDS011;22058;0.000;0.000;2023-04-03T15:27:39;3.60;;;2.05;;
35981;SDS011;22058;0.000;0.000;2023-04-03T15:30:06;2.75;;;1.50;;
35981;SDS011;22058;0.000;0.000;2023-04-03T15:32:34;8.32;;;2.42;;
35981;SDS011;22058;0.000;0.000;2023-04-03T15:35:00;3.75;;;1.73;;
35981;SDS011;22058;0.000;0.000;2023-04-03T15:37:27;4.82;;;1.85;;
35981;SDS011;22058;0.000;0.000;2023-04-03T15:39:53;6.88;;;1.52;;
35981;SDS011;22058;0.000;0.000;2023-04-03T15:42:19;6.68;;;2.30;;
35981;SDS011;22058;0.000;0.000;2023-04-03T15:44:45;6.13;;;2.00;;
35981;SDS011;22058;0.000;0.000;2023-04-03T15:47:11;5.47;;;2.20;;
35981;SDS011;22058;0.000;0.000;2023-04-03T15:49:38;5.97;;;1.85;;
35981;SDS011;22058;0.000;0.000;2023-04-03T15:52:04;3.80;;;1.85;;
35981;SDS011;22058;0.000;0.000;2023-04-03T15:54:30;7.90;;;2.47;;
35981;SDS011;22058;0.000;0.000;2023-04-03T15:56:56;10.77;;;2.08;;
35981;SDS011;22058;0.000;0.000;2023-04-03T15:59:23;10.88;;;2.67;;
35981;SDS011;22058;0.000;0.000;2023-04-03T16:01:49;5.82;;;2.20;;
35981;SDS011;22058;0.000;0.000;2023-04-03T16:04:15;5.30;;;2.30;;
35981;SDS011;22058;0.000;0.000;2023-04-03T16:06:42;27.02;;;4.00;;
35981;SDS011;22058;0.000;0.000;2023-04-03T16:09:08;7.82;;;2.25;;
35981;SDS011;22058;0.000;0.000;2023-04-03T16:11:35;3.58;;;1.95;;
35981;SDS011;22058;0.000;0.000;2023-04-03T16:14:04;8.65;;;2.10;;
35981;SDS011;22058;0.000;0.000;2023-04-03T16:16:30;5.55;;;1.70;;
35981;SDS011;22058;0.000;0.000;2023-04-03T16:18:56;11.63;;;3.15;;
35981;SDS011;22058;0.000;0.000;2023-04-03T16:21:23;6.82;;;2.42;;
35981;SDS011;22058;0.000;0.000;2023-04-03T16:23:49;2.90;;;1.75;;
35981;SDS011;22058;0.000;0.000;2023-04-03T16:26:16;10.15;;;1.80;;
35981;SDS011;22058;0.000;0.000;2023-04-03T16:28:42;8.30;;;1.83;;
35981;SDS011;22058;0.000;0.000;2023-04-03T16:31:09;7.68;;;2.55;;
35981;SDS011;22058;0.000;0.000;2023-04-03T16:33:35;6.78;;;2.63;;
35981;SDS011;22058;0.000;0.000;2023-04-03T16:36:02;3.75;;;1.92;;
35981;SDS011;22058;0.000;0.000;2023-04-03T16:38:28;5.80;;;1.67;;
35981;SDS011;22058;0.000;0.000;2023-04-03T16:40:55;4.75;;;2.00;;
35981;SDS011;22058;0.000;0.000;2023-04-03T16:43:27;2.92;;;1.85;;
35981;SDS011;22058;0.000;0.000;2023-04-03T16:45:53;13.77;;;2.45;;
35981;SDS011;22058;0.000;0.000;2023-04-03T16:48:20;6.47;;;1.98;;
35981;SDS011;22058;0.000;0.000;2023-04-03T16:50:46;4.93;;;1.98;;
35981;SDS011;22058;0.000;0.000;2023-04-03T16:53:14;3.15;;;1.67;;
35981;SDS011;22058;0.000;0.000;2023-04-03T16:55:40;3.53;;;1.83;;
35981;SDS011;22058;0.000;0.000;2023-04-03T16:58:06;4.75;;;2.25;;
35981;SDS011;22058;0.000;0.000;2023-04-03T17:00:33;10.18;;;2.47;;
35981;SDS011;22058;0.000;0.000;2023-04-03T17:02:59;7.35;;;1.90;;